Time;durP1;ratioP1;P1;durP2;ratioP2;P2;SDS_P1;SDS_P2;PMS_P1;PMS_P2;Temp;Humidity;BMP_temperature;BMP_pressure;BME280_temperature;BME280_humidity;BME280_pressure;Samples;Min_cycle;Max_cycle;Signal;HPM_P1;HPM_P2
2020/12/11 00:01:32;;;;;;;2.30;1.35;;;;;;;;;;5051659;28;20032;-69
2020/12/11 00:03:58;;;;;;;2.65;1.40;;;;;;;;;;5051565;28;20055;-69
2020/12/11 00:06:24;;;;;;;2.67;1.00;;;;;;;;;;5051659;28;20075;-70
2020/12/11 00:08:51;;;;;;;1.98;1.00;;;;;;;;;;5051549;28;20029;-70
2020/12/11 00:11:17;;;;;;;2.05;1.30;;;;;;;;;;5054505;28;20025;-69
2020/12/11 00:13:43;;;;;;;2.95;1.08;;;;;;;;;;5055194;28;20041;-70
2020/12/11 00:16:09;;;;;;;2.08;1.05;;;;;;;;;;5055551;28;20013;-69
2020/12/11 00:18:36;;;;;;;3.58;1.08;;;;;;;;;;5055320;28;20037;-68
2020/12/11 00:21:02;;;;;;;3.38;1.75;;;;;;;;;;5055263;28;20044;-70
2020/12/11 00:23:28;;;;;;;1.90;0.95;;;;;;;;;;5055464;28;20388;-70
2020/12/11 00:26:01;;;;;;;3.00;1.00;;;;;;;;;;5057021;28;20044;-67
2020/12/11 00:28:30;;;;;;;1.75;1.00;;;;;;;;;;5055307;28;20227;-68
2020/12/11 00:30:57;;;;;;;2.33;1.10;;;;;;;;;;5053719;28;20453;-68
2020/12/11 00:33:24;;;;;;;3.10;1.20;;;;;;;;;;5053448;28;20380;-69
2020/12/11 00:35:50;;;;;;;6.22;1.98;;;;;;;;;;5054983;28;20040;-69
2020/12/11 00:38:20;;;;;;;3.60;2.03;;;;;;;;;;5054808;28;20465;-69
2020/12/11 00:40:46;;;;;;;3.55;2.00;;;;;;;;;;5053327;28;20053;-67
2020/12/11 00:43:12;;;;;;;4.30;2.10;;;;;;;;;;5054815;28;20025;-69
2020/12/11 00:45:39;;;;;;;6.05;2.30;;;;;;;;;;5054833;28;20152;-68
2020/12/11 00:48:06;;;;;;;5.68;2.28;;;;;;;;;;5054744;28;20017;-68
2020/12/11 00:50:32;;;;;;;5.03;2.70;;;;;;;;;;5054554;28;20056;-69
2020/12/11 00:52:58;;;;;;;2.88;1.73;;;;;;;;;;5054507;28;20033;-69
2020/12/11 00:55:24;;;;;;;3.20;1.90;;;;;;;;;;5054516;28;20032;-69
2020/12/11 00:57:50;;;;;;;2.10;1.40;;;;;;;;;;5054495;28;20024;-68
2020/12/11 01:00:17;;;;;;;2.35;1.35;;;;;;;;;;5054210;28;20025;-68
2020/12/11 01:02:43;;;;;;;2.30;1.33;;;;;;;;;;5054370;28;20068;-68
2020/12/11 01:05:10;;;;;;;2.38;1.10;;;;;;;;;;5054349;28;20029;-68
2020/12/11 01:07:36;;;;;;;2.40;1.10;;;;;;;;;;5054202;28;20096;-68
2020/12/11 01:10:02;;;;;;;2.58;1.08;;;;;;;;;;5054360;28;20033;-68
2020/12/11 01:12:28;;;;;;;2.33;1.10;;;;;;;;;;5052838;28;20433;-68
2020/12/11 01:14:54;;;;;;;2.00;0.90;;;;;;;;;;5052887;28;20044;-67
2020/12/11 01:17:20;;;;;;;2.25;1.13;;;;;;;;;;5052782;28;20492;-67
2020/12/11 01:19:46;;;;;;;3.20;0.90;;;;;;;;;;5054026;28;20028;-67
2020/12/11 01:22:12;;;;;;;3.25;1.23;;;;;;;;;;5052752;28;20441;-68
2020/12/11 01:24:39;;;;;;;1.77;1.00;;;;;;;;;;5053712;28;20190;-67
2020/12/11 01:27:05;;;;;;;2.65;1.20;;;;;;;;;;5053893;28;20056;-68
2020/12/11 01:29:31;;;;;;;4.07;1.02;;;;;;;;;;5053821;28;20027;-67
2020/12/11 01:31:58;;;;;;;4.57;1.10;;;;;;;;;;5052361;28;20109;-68
2020/12/11 01:34:24;;;;;;;1.90;0.98;;;;;;;;;;5053531;28;20485;-67
2020/12/11 01:36:51;;;;;;;4.88;1.13;;;;;;;;;;5053769;28;20032;-67
2020/12/11 01:39:17;;;;;;;5.70;1.90;;;;;;;;;;5053184;28;20029;-67
2020/12/11 01:41:43;;;;;;;4.18;0.90;;;;;;;;;;5053580;28;20056;-66
2020/12/11 01:44:10;;;;;;;2.38;0.93;;;;;;;;;;5053493;28;20025;-68
2020/12/11 01:46:37;;;;;;;2.30;0.60;;;;;;;;;;5052103;28;20025;-68
2020/12/11 01:49:03;;;;;;;2.42;0.65;;;;;;;;;;5053357;28;20028;-68
2020/12/11 01:51:29;;;;;;;3.35;0.65;;;;;;;;;;5053229;28;20473;-68
2020/12/11 01:53:56;;;;;;;2.00;0.47;;;;;;;;;;5053358;28;20041;-67
2020/12/11 01:56:24;;;;;;;1.88;0.65;;;;;;;;;;5053254;28;20017;-68
2020/12/11 01:58:53;;;;;;;1.23;0.60;;;;;;;;;;5053856;28;20036;-68
2020/12/11 02:01:22;;;;;;;0.88;0.47;;;;;;;;;;5052807;28;20032;-68
2020/12/11 02:03:48;;;;;;;1.13;0.60;;;;;;;;;;5052928;28;20044;-68
2020/12/11 02:06:14;;;;;;;1.40;0.50;;;;;;;;;;5052205;28;20017;-67
2020/12/11 02:08:40;;;;;;;1.83;0.70;;;;;;;;;;5052923;28;20457;-67
2020/12/11 02:11:19;;;;;;;1.17;0.60;;;;;;;;;;5051999;28;20013;-67
2020/12/11 02:13:46;;;;;;;1.85;0.52;;;;;;;;;;5052741;28;20041;-68
2020/12/11 02:16:12;;;;;;;1.90;0.70;;;;;;;;;;5052805;28;20358;-67
2020/12/11 02:18:39;;;;;;;1.10;0.50;;;;;;;;;;5052844;28;20606;-68
2020/12/11 02:21:05;;;;;;;1.35;0.55;;;;;;;;;;5052152;28;20021;-69
2020/12/11 02:23:31;;;;;;;1.02;0.50;;;;;;;;;;5052326;28;20075;-68
2020/12/11 02:25:58;;;;;;;1.50;0.57;;;;;;;;;;5052551;28;20384;-69
2020/12/11 02:28:30;;;;;;;1.35;0.60;;;;;;;;;;5052646;28;20033;-68
2020/12/11 02:30:59;;;;;;;1.00;0.50;;;;;;;;;;5052805;28;20032;-69
2020/12/11 02:33:25;;;;;;;0.95;0.40;;;;;;;;;;5050879;28;20067;-69
2020/12/11 02:35:51;;;;;;;0.98;0.40;;;;;;;;;;5052804;28;20028;-69
2020/12/11 02:38:17;;;;;;;0.90;0.55;;;;;;;;;;5051404;28;20419;-68
2020/12/11 02:40:49;;;;;;;1.10;0.70;;;;;;;;;;5052362;28;20036;-67
2020/12/11 02:43:15;;;;;;;0.77;0.32;;;;;;;;;;5052481;28;20096;-69
2020/12/11 02:45:43;;;;;;;0.77;0.40;;;;;;;;;;5052276;28;20085;-69
2020/12/11 02:48:09;;;;;;;0.85;0.50;;;;;;;;;;5052433;28;20143;-68
2020/12/11 02:50:35;;;;;;;1.05;0.38;;;;;;;;;;5052408;28;20020;-68
2020/12/11 02:53:01;;;;;;;0.70;0.47;;;;;;;;;;5050792;28;20037;-70
2020/12/11 02:55:27;;;;;;;1.52;0.57;;;;;;;;;;5052184;28;20517;-70
2020/12/11 02:57:53;;;;;;;0.57;0.25;;;;;;;;;;5052187;28;20028;-70
2020/12/11 03:00:20;;;;;;;0.85;0.43;;;;;;;;;;5050840;28;20134;-70
2020/12/11 03:02:46;;;;;;;0.98;0.45;;;;;;;;;;5052249;28;20029;-69
2020/12/11 03:05:12;;;;;;;0.93;0.50;;;;;;;;;;5051923;28;20025;-70
2020/12/11 03:07:38;;;;;;;1.25;0.50;;;;;;;;;;5052051;28;20048;-70
2020/12/11 03:10:04;;;;;;;1.92;0.85;;;;;;;;;;5051852;28;20086;-70
2020/12/11 03:12:30;;;;;;;3.13;0.40;;;;;;;;;;5051890;28;20104;-68
2020/12/11 03:14:56;;;;;;;1.00;0.55;;;;;;;;;;5050531;28;20032;-68
2020/12/11 03:17:22;;;;;;;1.63;0.50;;;;;;;;;;5051792;28;20099;-68
2020/12/11 03:19:48;;;;;;;0.90;0.50;;;;;;;;;;5051636;28;20091;-69
2020/12/11 03:22:15;;;;;;;3.17;0.70;;;;;;;;;;5051679;28;20021;-68
2020/12/11 03:24:41;;;;;;;0.90;0.50;;;;;;;;;;5051672;28;20381;-69
2020/12/11 03:27:07;;;;;;;1.38;0.60;;;;;;;;;;5051753;28;20423;-69
2020/12/11 03:29:33;;;;;;;1.08;0.57;;;;;;;;;;5052687;28;20036;-68
2020/12/11 03:31:59;;;;;;;0.88;0.50;;;;;;;;;;5053325;28;20035;-69
2020/12/11 03:34:25;;;;;;;1.88;0.70;;;;;;;;;;5051791;28;20500;-68
2020/12/11 03:36:51;;;;;;;1.73;0.55;;;;;;;;;;5051865;28;20025;-69
2020/12/11 03:39:17;;;;;;;1.67;0.73;;;;;;;;;;5051498;28;20041;-68
2020/12/11 03:41:43;;;;;;;0.68;0.40;;;;;;;;;;5051411;28;20063;-68
2020/12/11 03:44:09;;;;;;;1.35;0.70;;;;;;;;;;5051710;28;20021;-69
2020/12/11 03:46:36;;;;;;;1.20;0.70;;;;;;;;;;5055144;28;20036;-69
2020/12/11 03:49:02;;;;;;;1.35;0.75;;;;;;;;;;5055592;28;20025;-69
2020/12/11 03:51:28;;;;;;;0.80;0.60;;;;;;;;;;5055535;28;20064;-69
2020/12/11 03:53:54;;;;;;;0.98;0.60;;;;;;;;;;5055267;28;20047;-69
2020/12/11 03:56:20;;;;;;;1.27;0.65;;;;;;;;;;5055445;28;20079;-69
2020/12/11 03:58:46;;;;;;;1.55;0.50;;;;;;;;;;5055386;28;20084;-70
2020/12/11 04:01:13;;;;;;;1.48;0.50;;;;;;;;;;5053981;28;20043;-70
2020/12/11 04:03:40;;;;;;;0.95;0.55;;;;;;;;;;5054097;28;20025;-70
2020/12/11 04:06:09;;;;;;;1.40;0.70;;;;;;;;;;5055145;28;20020;-70
2020/12/11 04:08:36;;;;;;;1.05;0.73;;;;;;;;;;5055324;28;20029;-70
2020/12/11 04:11:06;;;;;;;0.88;0.60;;;;;;;;;;5055077;28;20021;-69
2020/12/11 04:13:33;;;;;;;1.35;0.80;;;;;;;;;;5053879;28;20045;-70
2020/12/11 04:16:00;;;;;;;0.88;0.50;;;;;;;;;;5054957;28;20457;-70
2020/12/11 04:18:26;;;;;;;1.20;0.80;;;;;;;;;;5055024;28;20091;-70
2020/12/11 04:20:52;;;;;;;0.98;0.63;;;;;;;;;;5055127;28;20021;-70
2020/12/11 04:23:18;;;;;;;1.58;0.75;;;;;;;;;;5054727;28;20480;-69
2020/12/11 04:25:44;;;;;;;1.23;0.73;;;;;;;;;;5054968;28;20017;-70
2020/12/11 04:28:11;;;;;;;1.13;0.70;;;;;;;;;;5054926;28;20029;-70
2020/12/11 04:30:37;;;;;;;1.98;0.52;;;;;;;;;;5054680;28;20049;-70
2020/12/11 04:33:03;;;;;;;0.95;0.50;;;;;;;;;;5054705;28;20041;-70
2020/12/11 04:35:29;;;;;;;1.30;0.60;;;;;;;;;;5054334;28;20032;-70
2020/12/11 04:37:55;;;;;;;1.20;0.60;;;;;;;;;;5054619;28;20064;-70
2020/12/11 04:40:21;;;;;;;0.73;0.47;;;;;;;;;;5054816;28;20492;-70
2020/12/11 04:42:47;;;;;;;0.80;0.52;;;;;;;;;;5054434;28;20023;-70
2020/12/11 04:45:14;;;;;;;0.82;0.52;;;;;;;;;;5054562;28;20032;-69
2020/12/11 04:47:44;;;;;;;1.17;0.52;;;;;;;;;;5054490;28;20505;-70
2020/12/11 04:50:11;;;;;;;1.00;0.43;;;;;;;;;;5054417;28;20029;-70
2020/12/11 04:52:39;;;;;;;0.65;0.40;;;;;;;;;;5054316;28;20037;-70
2020/12/11 04:55:06;;;;;;;1.45;0.45;;;;;;;;;;5054468;28;20057;-70
2020/12/11 04:57:32;;;;;;;0.50;0.30;;;;;;;;;;5054064;28;20424;-70
2020/12/11 04:59:59;;;;;;;0.68;0.35;;;;;;;;;;5053993;28;20025;-70
2020/12/11 05:02:28;;;;;;;0.65;0.30;;;;;;;;;;5055206;28;20057;-72
2020/12/11 05:04:54;;;;;;;0.90;0.40;;;;;;;;;;5054388;28;20488;-70
2020/12/11 05:07:21;;;;;;;0.80;0.30;;;;;;;;;;5054254;28;20031;-69
2020/12/11 05:09:56;;;;;;;0.45;0.13;;;;;;;;;;5052800;28;20465;-69
2020/12/11 05:12:23;;;;;;;0.85;0.38;;;;;;;;;;5054902;28;20485;-69
2020/12/11 05:14:54;;;;;;;0.90;0.30;;;;;;;;;;5054337;28;20439;-69
2020/12/11 05:17:26;;;;;;;0.45;0.30;;;;;;;;;;5052833;28;20078;-69
2020/12/11 05:19:52;;;;;;;4.95;2.40;;;;;;;;;;5053854;28;20025;-69
2020/12/11 05:22:19;;;;;;;5.03;2.90;;;;;;;;;;5053772;28;20036;-69
2020/12/11 05:24:45;;;;;;;3.53;1.95;;;;;;;;;;5053797;28;20033;-69
2020/12/11 05:27:27;;;;;;;2.63;1.30;;;;;;;;;;5053741;28;20021;-69
2020/12/11 05:29:53;;;;;;;1.98;1.08;;;;;;;;;;5053581;28;20025;-68
2020/12/11 05:32:33;;;;;;;1.98;1.05;;;;;;;;;;5053770;28;20047;-71
2020/12/11 05:35:00;;;;;;;1.60;0.65;;;;;;;;;;5069105;28;20136;-71
2020/12/11 05:37:26;;;;;;;1.00;0.50;;;;;;;;;;5053624;28;20025;-68
2020/12/11 05:39:52;;;;;;;1.10;0.50;;;;;;;;;;5053291;28;20048;-69
2020/12/11 05:42:18;;;;;;;1.25;0.65;;;;;;;;;;5053624;28;20377;-65
2020/12/11 05:44:44;;;;;;;0.88;0.40;;;;;;;;;;5053438;28;20055;-64
2020/12/11 05:47:16;;;;;;;0.75;0.25;;;;;;;;;;5053501;28;20131;-64
2020/12/11 05:49:42;;;;;;;0.65;0.20;;;;;;;;;;5053177;28;20025;-66
2020/12/11 05:52:14;;;;;;;2.10;0.70;;;;;;;;;;5051760;28;20021;-65
2020/12/11 05:54:48;;;;;;;1.80;0.70;;;;;;;;;;5052098;28;20037;-66
2020/12/11 05:57:17;;;;;;;1.80;0.70;;;;;;;;;;5050911;28;20083;-69
2020/12/11 05:59:44;;;;;;;2.78;0.60;;;;;;;;;;5053098;28;20071;-66
2020/12/11 06:02:11;;;;;;;1.08;0.57;;;;;;;;;;5053115;28;20374;-70
2020/12/11 06:04:38;;;;;;;1.20;0.50;;;;;;;;;;5053328;28;20047;-68
2020/12/11 06:07:10;;;;;;;1.80;0.40;;;;;;;;;;5053125;28;20100;-69
2020/12/11 06:09:37;;;;;;;1.42;0.65;;;;;;;;;;5053398;28;20024;-68
2020/12/11 06:12:07;;;;;;;1.02;0.50;;;;;;;;;;5053033;28;20087;-67
2020/12/11 06:14:33;;;;;;;2.00;1.20;;;;;;;;;;5051490;28;20037;-68
2020/12/11 06:17:00;;;;;;;2.50;1.17;;;;;;;;;;5053094;28;20526;-68
2020/12/11 06:19:27;;;;;;;2.42;1.10;;;;;;;;;;5053533;28;20074;-68
2020/12/11 06:21:53;;;;;;;2.88;1.55;;;;;;;;;;5053115;28;20083;-68
2020/12/11 06:24:32;;;;;;;2.70;1.10;;;;;;;;;;5052650;28;20017;-68
2020/12/11 06:27:01;;;;;;;2.17;0.90;;;;;;;;;;5051845;28;20492;-68
2020/12/11 06:29:29;;;;;;;2.67;1.10;;;;;;;;;;5052951;28;20013;-69
2020/12/11 06:31:55;;;;;;;4.40;1.35;;;;;;;;;;5052624;28;20029;-68
2020/12/11 06:34:22;;;;;;;3.58;1.17;;;;;;;;;;5055146;28;20068;-70
2020/12/11 06:36:48;;;;;;;2.10;1.27;;;;;;;;;;5053236;28;20025;-68
2020/12/11 06:39:35;;;;;;;2.70;1.20;;;;;;;;;;5052791;28;20054;-69
2020/12/11 06:42:01;;;;;;;2.75;1.30;;;;;;;;;;5048510;28;20128;-69
2020/12/11 06:44:31;;;;;;;1.65;1.10;;;;;;;;;;5052688;28;20031;-71
2020/12/11 06:47:08;;;;;;;2.67;1.13;;;;;;;;;;5052581;28;20029;-68
2020/12/11 06:49:34;;;;;;;3.42;2.15;;;;;;;;;;5052725;28;20443;-69
2020/12/11 06:52:03;;;;;;;3.70;2.33;;;;;;;;;;5052721;28;20021;-69
2020/12/11 06:54:29;;;;;;;;;;;;;;;;;;5053690;28;20075;-69
2020/12/11 06:56:56;;;;;;;3.78;1.95;;;;;;;;;;5052449;28;19908;-63
2020/12/11 06:59:26;;;;;;;2.40;1.40;;;;;;;;;;5052536;28;20082;-64
2020/12/11 07:01:52;;;;;;;3.10;1.50;;;;;;;;;;5052170;28;20108;-64
2020/12/11 07:04:18;;;;;;;2.70;1.63;;;;;;;;;;5050990;28;20028;-66
2020/12/11 07:06:47;;;;;;;2.33;1.33;;;;;;;;;;5052371;28;20362;-69
2020/12/11 07:09:14;;;;;;;4.68;1.60;;;;;;;;;;5048932;28;20071;-70
2020/12/11 07:11:40;;;;;;;2.85;1.52;;;;;;;;;;5050122;28;20100;-69
2020/12/11 07:14:06;;;;;;;4.40;1.55;;;;;;;;;;5048851;28;20095;-64
2020/12/11 07:16:38;;;;;;;3.78;1.80;;;;;;;;;;5050160;28;20021;-67
2020/12/11 07:19:04;;;;;;;4.90;1.52;;;;;;;;;;5050104;28;20021;-67
2020/12/11 07:21:32;;;;;;;4.25;1.30;;;;;;;;;;5050213;28;20033;-69
2020/12/11 07:23:58;;;;;;;3.95;1.55;;;;;;;;;;5050589;28;20075;-69
2020/12/11 07:26:24;;;;;;;4.57;1.13;;;;;;;;;;5052277;28;20025;-69
2020/12/11 07:29:01;;;;;;;7.07;1.42;;;;;;;;;;5053294;28;20104;-68
2020/12/11 07:31:27;;;;;;;3.63;1.13;;;;;;;;;;5050441;28;20028;-69
2020/12/11 07:33:53;;;;;;;5.05;1.50;;;;;;;;;;5051732;28;20546;-68
2020/12/11 07:36:20;;;;;;;4.60;1.55;;;;;;;;;;5050606;28;20025;-70
2020/12/11 07:38:46;;;;;;;5.65;1.20;;;;;;;;;;5050779;28;20029;-69
2020/12/11 07:41:17;;;;;;;4.07;1.77;;;;;;;;;;5052227;28;20427;-70
2020/12/11 07:43:47;;;;;;;6.90;1.50;;;;;;;;;;5053478;28;20032;-69
2020/12/11 07:46:21;;;;;;;2.55;1.08;;;;;;;;;;5052019;28;20479;-70
2020/12/11 07:48:50;;;;;;;5.53;1.30;;;;;;;;;;5051965;28;20078;-69
2020/12/11 07:51:18;;;;;;;3.08;1.00;;;;;;;;;;5051800;28;20021;-69
2020/12/11 07:53:51;;;;;;;2.63;0.90;;;;;;;;;;5050573;28;20562;-69
2020/12/11 07:56:17;;;;;;;2.45;0.68;;;;;;;;;;5051910;28;20067;-67
2020/12/11 07:58:43;;;;;;;1.88;0.90;;;;;;;;;;5051861;28;20025;-70
2020/12/11 08:01:09;;;;;;;3.13;2.22;;;;;;;;;;5051718;28;20108;-70
2020/12/11 08:03:36;;;;;;;2.20;0.73;;;;;;;;;;5051878;28;20025;-70
2020/12/11 08:06:02;;;;;;;1.48;0.80;;;;;;;;;;5052733;28;20029;-69
2020/12/11 08:08:28;;;;;;;2.67;1.00;;;;;;;;;;5053670;28;20059;-70
2020/12/11 08:10:54;;;;;;;2.15;0.80;;;;;;;;;;5051860;28;20032;-67
2020/12/11 08:13:21;;;;;;;1.83;0.98;;;;;;;;;;5051545;28;20388;-68
2020/12/11 08:15:48;;;;;;;2.63;0.98;;;;;;;;;;5051367;28;20453;-69
2020/12/11 08:18:22;;;;;;;2.95;0.82;;;;;;;;;;5051586;28;20021;-69
2020/12/11 08:20:48;;;;;;;1.58;0.70;;;;;;;;;;5051579;28;20527;-69
2020/12/11 08:23:45;;;;;;;4.20;0.50;;;;;;;;;;5051373;28;20025;-69
2020/12/11 08:26:11;;;;;;;1.65;0.70;;;;;;;;;;5051116;28;20095;-71
2020/12/11 08:28:37;;;;;;;1.63;0.82;;;;;;;;;;5051793;28;20029;-70
2020/12/11 08:31:21;;;;;;;1.20;0.60;;;;;;;;;;5052351;28;20028;-69
2020/12/11 08:33:48;;;;;;;3.35;1.00;;;;;;;;;;5055595;28;20033;-70
2020/12/11 08:36:25;;;;;;;1.92;0.68;;;;;;;;;;5055368;28;20439;-69
2020/12/11 08:39:04;;;;;;;1.95;0.90;;;;;;;;;;5055171;28;20481;-69
2020/12/11 08:41:32;;;;;;;2.35;0.85;;;;;;;;;;5055064;28;20044;-69
2020/12/11 08:44:00;;;;;;;1.88;0.50;;;;;;;;;;5053863;28;20385;-69
2020/12/11 08:46:48;;;;;;;3.10;0.63;;;;;;;;;;5053676;28;20032;-69
2020/12/11 08:49:29;;;;;;;1.70;0.80;;;;;;;;;;5054859;28;20457;-69
2020/12/11 08:51:55;;;;;;;0.90;0.30;;;;;;;;;;5053559;28;20033;-70
2020/12/11 08:54:28;;;;;;;1.50;0.40;;;;;;;;;;5054505;28;20048;-68
2020/12/11 08:56:54;;;;;;;1.67;0.60;;;;;;;;;;5053251;28;20021;-70
2020/12/11 08:59:20;;;;;;;2.47;0.80;;;;;;;;;;5054537;28;20029;-70
2020/12/11 09:01:46;;;;;;;1.52;0.63;;;;;;;;;;5054600;28;20027;-67
2020/12/11 09:04:12;;;;;;;3.13;0.80;;;;;;;;;;5054580;28;20087;-70
2020/12/11 09:06:38;;;;;;;2.67;1.05;;;;;;;;;;5054386;28;20454;-70
2020/12/11 09:09:05;;;;;;;2.08;0.88;;;;;;;;;;5054372;28;20029;-69
2020/12/11 09:11:31;;;;;;;3.17;0.95;;;;;;;;;;5054551;28;20009;-69
2020/12/11 09:13:57;;;;;;;3.53;0.98;;;;;;;;;;5070549;28;20064;-70
2020/12/11 09:16:23;;;;;;;4.05;1.38;;;;;;;;;;5054663;28;20032;-69
2020/12/11 09:18:49;;;;;;;2.35;0.90;;;;;;;;;;5054208;28;20028;-70
2020/12/11 09:21:15;;;;;;;2.05;0.90;;;;;;;;;;5054294;28;20083;-70
2020/12/11 09:23:42;;;;;;;1.55;0.65;;;;;;;;;;5054274;28;20496;-70
2020/12/11 09:26:08;;;;;;;2.85;1.88;;;;;;;;;;5054036;28;20469;-71
2020/12/11 09:28:34;;;;;;;1.40;0.75;;;;;;;;;;5053918;28;20031;-70
2020/12/11 09:31:00;;;;;;;2.13;1.08;;;;;;;;;;5054020;28;20024;-70
2020/12/11 09:33:28;;;;;;;3.25;0.88;;;;;;;;;;5053875;28;20076;-69
2020/12/11 09:35:55;;;;;;;3.07;1.77;;;;;;;;;;5054123;28;20119;-69
2020/12/11 09:38:21;;;;;;;2.78;2.03;;;;;;;;;;5057102;28;20039;-68
2020/12/11 09:40:53;;;;;;;4.10;2.70;;;;;;;;;;5054377;28;20037;-69
2020/12/11 09:56:29;;;;;;;2.92;1.13;;;;;;;;;;5053849;28;20032;-70
2020/12/11 09:59:02;;;;;;;2.92;0.80;;;;;;;;;;5053626;28;20079;-70
2020/12/11 10:01:42;;;;;;;2.08;0.90;;;;;;;;;;5052243;28;20021;-69
2020/12/11 10:04:08;;;;;;;2.45;1.60;;;;;;;;;;5053468;28;20029;-69
2020/12/11 10:06:34;;;;;;;3.90;1.15;;;;;;;;;;5053525;28;20033;-68
2020/12/11 10:09:00;;;;;;;2.75;1.38;;;;;;;;;;5053336;28;20039;-69
2020/12/11 10:11:26;;;;;;;3.88;1.98;;;;;;;;;;5053210;28;20039;-70
2020/12/11 10:14:06;;;;;;;3.22;1.73;;;;;;;;;;5053160;28;20032;-69
2020/12/11 10:16:32;;;;;;;10.32;6.05;;;;;;;;;;5053271;28;20044;-70
2020/12/11 10:18:58;;;;;;;15.70;9.68;;;;;;;;;;5053115;28;20013;-68
2020/12/11 10:21:25;;;;;;;31.58;21.17;;;;;;;;;;5053075;28;20471;-67
2020/12/11 10:23:51;;;;;;;9.23;5.28;;;;;;;;;;5052901;28;20024;-70
2020/12/11 10:26:17;;;;;;;27.33;17.00;;;;;;;;;;5052921;28;20035;-70
2020/12/11 10:28:43;;;;;;;22.85;14.65;;;;;;;;;;5052888;28;20029;-69
2020/12/11 10:31:09;;;;;;;15.23;9.98;;;;;;;;;;5052872;28;20484;-69
2020/12/11 10:33:35;;;;;;;11.65;6.82;;;;;;;;;;5052964;28;20075;-70
2020/12/11 10:36:02;;;;;;;14.00;7.22;;;;;;;;;;5052819;28;20053;-69
2020/12/11 10:38:28;;;;;;;30.02;19.40;;;;;;;;;;5052707;28;20032;-70
2020/12/11 10:40:54;;;;;;;21.40;13.35;;;;;;;;;;5052711;28;20028;-69
2020/12/11 10:43:20;;;;;;;10.35;6.18;;;;;;;;;;5052681;28;20404;-69
2020/12/11 10:45:46;;;;;;;9.57;5.07;;;;;;;;;;5052468;28;20029;-67
2020/12/11 10:48:12;;;;;;;7.43;4.95;;;;;;;;;;5051208;28;20466;-69
2020/12/11 10:50:38;;;;;;;11.77;6.68;;;;;;;;;;5052640;28;20103;-69
2020/12/11 10:53:04;;;;;;;21.52;11.80;;;;;;;;;;5052490;28;20091;-69
2020/12/11 10:55:30;;;;;;;18.08;11.05;;;;;;;;;;5052102;28;20029;-69
2020/12/11 10:57:56;;;;;;;19.20;10.93;;;;;;;;;;5052432;28;20385;-68
2020/12/11 11:00:22;;;;;;;7.53;3.80;;;;;;;;;;5052394;28;20025;-69
2020/12/11 11:02:48;;;;;;;8.82;4.80;;;;;;;;;;5052201;28;20056;-69
2020/12/11 11:05:15;;;;;;;9.02;4.53;;;;;;;;;;5052459;28;20021;-70
2020/12/11 11:07:41;;;;;;;4.80;2.60;;;;;;;;;;5052227;28;20389;-70
2020/12/11 11:13:13;;;;;;;4.13;2.50;;;;;;;;;;5055169;28;20112;-70
2020/12/11 11:15:46;;;;;;;5.35;2.55;;;;;;;;;;5051922;28;20040;-70
2020/12/11 11:28:55;;;;;;;4.20;0.65;;;;;;;;;;5028855;28;20037;-69
2020/12/11 11:31:21;;;;;;;4.60;0.90;;;;;;;;;;5052077;28;20029;-70
2020/12/11 11:33:47;;;;;;;3.58;1.10;;;;;;;;;;5051802;28;20041;-70
2020/12/11 11:36:13;;;;;;;3.70;1.25;;;;;;;;;;5051889;28;20389;-70
2020/12/11 11:38:39;;;;;;;4.75;2.10;;;;;;;;;;5050490;28;20036;-70
2020/12/11 11:41:05;;;;;;;4.88;2.58;;;;;;;;;;5051955;28;20055;-70
2020/12/11 11:44:06;;;;;;;4.55;1.77;;;;;;;;;;5051802;28;20060;-70
2020/12/11 11:46:32;;;;;;;4.40;1.30;;;;;;;;;;5051895;28;20036;-68
2020/12/11 11:48:58;;;;;;;4.15;1.75;;;;;;;;;;5051865;28;20429;-67
2020/12/11 11:51:35;;;;;;;6.38;3.25;;;;;;;;;;5051814;28;20099;-68
2020/12/11 11:54:01;;;;;;;4.68;2.10;;;;;;;;;;5051959;28;20041;-68
2020/12/11 11:56:27;;;;;;;3.47;1.10;;;;;;;;;;5051911;28;20109;-68
2020/12/11 11:58:53;;;;;;;2.92;1.35;;;;;;;;;;5051822;28;20373;-70
2020/12/11 12:01:19;;;;;;;5.13;1.30;;;;;;;;;;5051980;28;20036;-70
2020/12/11 12:03:46;;;;;;;3.00;1.38;;;;;;;;;;5051802;28;20045;-69
2020/12/11 12:06:12;;;;;;;5.72;2.15;;;;;;;;;;5053074;28;20035;-70
2020/12/11 12:08:38;;;;;;;7.90;4.43;;;;;;;;;;5055610;28;20029;-70
2020/12/11 12:11:04;;;;;;;4.90;2.63;;;;;;;;;;5055441;28;20029;-70
2020/12/11 12:13:30;;;;;;;9.90;3.40;;;;;;;;;;5055385;28;20128;-70
2020/12/11 12:15:57;;;;;;;6.85;1.80;;;;;;;;;;5055437;28;20021;-69
2020/12/11 12:18:23;;;;;;;4.28;1.95;;;;;;;;;;5055473;28;20388;-70
2020/12/11 12:20:55;;;;;;;4.22;2.25;;;;;;;;;;5055642;28;20028;-69
2020/12/11 12:24:09;;;;;;;4.75;1.95;;;;;;;;;;5054310;28;20037;-69
2020/12/11 12:31:21;;;;;;;17.80;8.57;;;;;;;;;;5055181;28;20036;-70
2020/12/11 12:42:35;;;;;;;5.32;2.20;;;;;;;;;;5055171;28;20021;-71
2020/12/11 12:45:01;;;;;;;10.10;3.40;;;;;;;;;;5058000;28;20070;-70
2020/12/11 12:47:28;;;;;;;8.63;3.55;;;;;;;;;;5054869;28;20033;-71
2020/12/11 12:49:54;;;;;;;7.70;3.03;;;;;;;;;;5054711;28;20017;-71
2020/12/11 12:52:20;;;;;;;9.85;3.83;;;;;;;;;;5054634;28;20366;-70
2020/12/11 12:54:46;;;;;;;8.27;3.30;;;;;;;;;;5054670;28;20049;-70
2020/12/11 12:59:51;;;;;;;7.38;2.67;;;;;;;;;;5054652;28;20385;-69
2020/12/11 13:07:22;;;;;;;3.90;1.38;;;;;;;;;;5054905;28;20037;-70
2020/12/11 13:09:48;;;;;;;3.33;1.55;;;;;;;;;;5054627;28;20024;-70
2020/12/11 13:12:14;;;;;;;2.75;1.40;;;;;;;;;;5054469;28;20033;-71
2020/12/11 13:14:40;;;;;;;5.47;1.50;;;;;;;;;;5054431;28;20033;-70
2020/12/11 13:17:06;;;;;;;4.30;2.17;;;;;;;;;;5054154;28;20039;-69
2020/12/11 13:19:34;;;;;;;5.00;2.85;;;;;;;;;;5054187;28;20108;-70
2020/12/11 13:27:25;;;;;;;3.88;1.65;;;;;;;;;;5054138;28;20094;-68
2020/12/11 13:29:51;;;;;;;3.90;1.83;;;;;;;;;;5053871;28;20013;-64
2020/12/11 13:32:21;;;;;;;3.72;1.92;;;;;;;;;;5053806;28;20393;-63
2020/12/11 13:34:47;;;;;;;4.60;1.90;;;;;;;;;;5053393;28;20107;-59
2020/12/11 13:37:14;;;;;;;3.38;1.60;;;;;;;;;;5053592;28;20090;-61
2020/12/11 13:39:40;;;;;;;4.35;1.42;;;;;;;;;;5053513;28;20466;-61
2020/12/11 13:42:06;;;;;;;2.83;1.48;;;;;;;;;;5053442;28;20458;-63
2020/12/11 13:44:32;;;;;;;5.05;2.50;;;;;;;;;;5052433;28;20116;-60
2020/12/11 13:46:58;;;;;;;7.28;2.20;;;;;;;;;;5053563;28;20454;-69
2020/12/11 13:49:24;;;;;;;7.03;3.08;;;;;;;;;;5053704;28;20381;-67
2020/12/11 13:51:51;;;;;;;6.55;3.45;;;;;;;;;;5051117;28;20017;-69
2020/12/11 13:54:18;;;;;;;6.20;3.50;;;;;;;;;;5053397;28;20122;-69
2020/12/11 13:56:44;;;;;;;5.32;2.42;;;;;;;;;;5053354;28;20103;-69
2020/12/11 13:59:10;;;;;;;3.97;1.77;;;;;;;;;;5053195;28;20025;-67
2020/12/11 14:01:36;;;;;;;5.18;1.70;;;;;;;;;;5053420;28;20048;-68
2020/12/11 14:04:04;;;;;;;2.92;1.90;;;;;;;;;;5053315;28;20056;-68
2020/12/11 14:06:30;;;;;;;3.20;1.38;;;;;;;;;;5053488;28;20100;-67
2020/12/11 14:08:56;;;;;;;3.58;1.58;;;;;;;;;;5053378;28;20108;-68
2020/12/11 14:11:26;;;;;;;3.40;1.60;;;;;;;;;;5051819;28;20029;-68
2020/12/11 14:13:52;;;;;;;3.30;1.50;;;;;;;;;;5053086;28;20094;-69
2020/12/11 14:16:30;;;;;;;4.78;1.50;;;;;;;;;;5052283;28;20025;-69
2020/12/11 14:21:48;;;;;;;4.60;2.53;;;;;;;;;;5041573;28;20033;-68
2020/12/11 14:24:14;;;;;;;3.13;2.00;;;;;;;;;;5051609;28;20052;-70
2020/12/11 14:26:47;;;;;;;3.13;2.05;;;;;;;;;;5053094;28;20096;-68
2020/12/11 14:29:13;;;;;;;4.15;1.80;;;;;;;;;;5052326;28;20082;-68
2020/12/11 14:31:39;;;;;;;4.50;1.77;;;;;;;;;;5052903;28;20116;-68
2020/12/11 14:34:05;;;;;;;3.78;1.90;;;;;;;;;;5052634;28;20041;-68
2020/12/11 14:36:31;;;;;;;14.68;7.60;;;;;;;;;;5052902;28;20032;-69
2020/12/11 14:39:00;;;;;;;6.32;2.95;;;;;;;;;;5052675;28;20541;-68
2020/12/11 14:41:26;;;;;;;7.10;3.00;;;;;;;;;;5051436;28;20060;-69
2020/12/11 14:43:53;;;;;;;5.85;3.20;;;;;;;;;;5052790;28;20484;-68
2020/12/11 14:46:23;;;;;;;3.03;1.83;;;;;;;;;;5052755;28;20096;-68
2020/12/11 14:48:50;;;;;;;7.35;3.70;;;;;;;;;;5052662;28;20459;-68
2020/12/11 14:51:16;;;;;;;8.68;5.15;;;;;;;;;;5052519;28;20445;-67
2020/12/11 14:53:42;;;;;;;10.15;5.72;;;;;;;;;;5052419;28;20094;-68
2020/12/11 14:56:09;;;;;;;10.38;5.57;;;;;;;;;;5052142;28;20372;-69
2020/12/11 14:58:35;;;;;;;14.52;5.20;;;;;;;;;;5052481;28;20029;-69
2020/12/11 15:01:01;;;;;;;6.55;3.03;;;;;;;;;;5052383;28;20029;-69
2020/12/11 15:03:27;;;;;;;5.40;3.20;;;;;;;;;;5052218;28;20020;-69
2020/12/11 15:05:53;;;;;;;4.13;2.20;;;;;;;;;;5052428;28;20100;-69
2020/12/11 15:08:19;;;;;;;3.75;1.98;;;;;;;;;;5052484;28;20055;-69
2020/12/11 15:10:45;;;;;;;2.28;1.13;;;;;;;;;;5052437;28;20032;-68
2020/12/11 15:13:11;;;;;;;4.82;1.58;;;;;;;;;;5052512;28;20020;-69
2020/12/11 15:15:38;;;;;;;6.80;1.90;;;;;;;;;;5051942;28;20037;-70
2020/12/11 15:18:04;;;;;;;3.30;1.58;;;;;;;;;;5050767;28;20025;-70
2020/12/11 15:20:30;;;;;;;6.28;1.40;;;;;;;;;;5052019;28;20465;-68
2020/12/11 15:22:57;;;;;;;3.42;1.38;;;;;;;;;;5051188;28;20017;-69
2020/12/11 15:25:24;;;;;;;5.40;2.85;;;;;;;;;;5052171;28;20028;-67
2020/12/11 15:27:50;;;;;;;14.30;7.40;;;;;;;;;;5052333;28;20021;-70
2020/12/11 15:30:16;;;;;;;7.47;3.42;;;;;;;;;;5050844;28;20033;-69
2020/12/11 15:32:42;;;;;;;6.22;2.50;;;;;;;;;;5052068;28;20024;-69
2020/12/11 15:35:08;;;;;;;5.05;2.97;;;;;;;;;;5051846;28;20041;-69
2020/12/11 15:37:34;;;;;;;5.80;2.83;;;;;;;;;;5052172;28;20040;-69
2020/12/11 15:40:00;;;;;;;4.45;2.08;;;;;;;;;;5052000;28;20040;-70
2020/12/11 15:42:27;;;;;;;4.25;1.80;;;;;;;;;;5055452;28;20487;-70